createdAt,value
2018-09-22T00:02:29.566Z,100950.69
2018-09-22T00:05:34.925Z,100952.14
2018-09-22T00:08:40.327Z,100946.77
2018-09-22T00:11:45.690Z,100949.13
2018-09-22T00:14:51.030Z,100951.27
2018-09-22T00:17:56.465Z,100953.97
2018-09-22T00:21:02.071Z,100963.39
2018-09-22T00:24:07.472Z,100960.85
2018-09-22T00:27:12.939Z,100961.09
2018-09-22T00:30:18.516Z,100966.52
2018-09-22T00:33:23.885Z,100957.25
2018-09-22T00:36:29.244Z,100961.38
2018-09-22T00:39:34.694Z,100963.52
2018-09-22T00:42:40.054Z,100971.67
2018-09-22T00:45:45.446Z,100972.88
2018-09-22T00:48:50.930Z,100979.95
2018-09-22T00:51:56.286Z,100978.72
2018-09-22T00:55:03.758Z,100975.55
2018-09-22T00:58:09.210Z,100985.60
2018-09-22T01:01:14.677Z,100991.34
2018-09-22T01:04:20.046Z,100987.13
2018-09-22T01:07:25.838Z,100993.02
2018-09-22T01:10:31.237Z,101000.09
2018-09-22T01:13:36.585Z,101009.11
2018-09-22T01:16:41.999Z,101008.89
2018-09-22T01:19:47.427Z,101012.74
2018-09-22T01:22:53.382Z,101020.78
2018-09-22T01:25:58.721Z,101022.48
2018-09-22T01:29:04.138Z,101024.31
2018-09-22T01:32:09.474Z,101029.30
2018-09-22T01:35:14.929Z,101041.97
2018-09-22T01:38:20.370Z,101043.27
2018-09-22T01:41:25.713Z,101043.11
2018-09-22T01:44:31.050Z,101049.72
2018-09-22T01:47:36.546Z,101060.45
2018-09-22T01:50:41.945Z,101059.59
2018-09-22T01:53:47.282Z,101060.08
2018-09-22T01:56:52.626Z,101053.77
2018-09-22T01:59:58.405Z,101057.47
2018-09-22T02:03:03.721Z,101064.73
2018-09-22T02:06:09.310Z,101055.55
2018-09-22T02:09:14.786Z,101067.03
2018-09-22T02:12:20.115Z,101068.49
2018-09-22T02:15:25.465Z,101073.80
2018-09-22T02:18:30.889Z,101083.45
2018-09-22T02:21:36.274Z,101085.66
2018-09-22T02:24:41.634Z,101090.41
2018-09-22T02:27:47.014Z,101099.84
2018-09-22T02:30:52.362Z,101100.83
2018-09-22T02:33:57.711Z,101106.34
2018-09-22T02:37:03.098Z,101117.14
2018-09-22T02:40:08.470Z,101133.61
2018-09-22T02:43:14.097Z,101127.35
2018-09-22T02:46:19.699Z,101126.58
2018-09-22T02:49:25.450Z,101134.24
2018-09-22T02:52:30.827Z,101138.21
2018-09-22T02:55:36.564Z,101137.47
2018-09-22T02:58:41.957Z,101133.30
2018-09-22T03:01:47.314Z,101141.33
2018-09-22T03:04:52.646Z,101151.75
2018-09-22T03:07:58.163Z,101152.05
2018-09-22T03:11:03.594Z,101157.58
2018-09-22T03:14:09.409Z,101162.67
2018-09-22T03:17:14.854Z,101162.77
2018-09-22T03:20:20.214Z,101179.81
2018-09-22T03:23:25.574Z,101186.84
2018-09-22T03:26:30.918Z,101190.30
2018-09-22T03:29:36.278Z,101192.06
2018-09-22T03:32:41.664Z,101191.94
2018-09-22T03:35:46.985Z,101220.20
2018-09-22T03:38:52.442Z,101214.00
2018-09-22T03:41:57.753Z,101218.52
2018-09-22T03:45:03.098Z,101223.58
2018-09-22T03:48:08.494Z,101216.16
2018-09-22T03:51:13.818Z,101214.54
2018-09-22T03:54:19.159Z,101225.10
2018-09-22T03:57:24.601Z,101220.59
2018-09-22T04:00:30.083Z,101233.16
2018-09-22T04:03:35.422Z,101238.18
2018-09-22T04:06:40.918Z,101257.13
2018-09-22T04:09:46.313Z,101254.19
2018-09-22T04:12:51.625Z,101263.72
2018-09-22T04:15:57.006Z,101263.06
2018-09-22T04:19:02.565Z,101259.63
2018-09-22T04:22:07.910Z,101256.56
2018-09-22T04:25:13.285Z,101256.56
2018-09-22T04:28:18.722Z,101265.59
2018-09-22T04:31:24.089Z,101261.63
2018-09-22T04:34:29.453Z,101263.58
2018-09-22T04:37:34.921Z,101265.16
2018-09-22T04:40:40.294Z,101262.37
2018-09-22T04:43:47.726Z,101271.53
2018-09-22T04:46:53.149Z,101270.42
2018-09-22T04:49:58.513Z,101282.59
2018-09-22T04:53:03.861Z,101278.09
2018-09-22T04:56:09.214Z,101283.77
2018-09-22T04:59:14.638Z,101292.63
2018-09-22T05:02:19.969Z,101297.19
2018-09-22T05:05:25.306Z,101299.39
2018-09-22T05:08:30.645Z,101299.25
2018-09-22T05:11:36.602Z,101312.87
2018-09-22T05:14:42.421Z,101317.23
2018-09-22T05:17:47.815Z,101316.83
2018-09-22T05:20:53.145Z,101315.85
2018-09-22T05:23:58.449Z,101327.66
2018-09-22T05:27:03.965Z,101321.93
2018-09-22T05:30:09.426Z,101327.33
2018-09-22T05:33:14.789Z,101329.53
2018-09-22T05:36:20.189Z,101335.80
2018-09-22T05:39:25.566Z,101343.02
2018-09-22T05:42:30.925Z,101350.23
2018-09-22T05:45:36.282Z,101344.97
2018-09-22T05:48:41.750Z,101341.90
2018-09-22T05:51:47.130Z,101342.74
2018-09-22T05:54:52.491Z,101348.09
2018-09-22T05:57:57.964Z,101353.57
2018-09-22T06:01:03.598Z,101360.78
2018-09-22T06:04:08.934Z,101365.02
2018-09-22T06:07:14.589Z,101372.33
2018-09-22T06:10:20.041Z,101373.23
2018-09-22T06:13:25.383Z,101366.91
2018-09-22T06:16:30.754Z,101378.51
2018-09-22T06:19:36.202Z,101381.30
2018-09-22T06:22:41.574Z,101376.88
2018-09-22T06:25:46.938Z,101375.86
2018-09-22T06:28:52.368Z,101376.62
2018-09-22T06:31:57.910Z,101378.88
2018-09-22T06:35:03.270Z,101391.26
2018-09-22T06:38:08.665Z,101389.44
2018-09-22T06:41:14.017Z,101393.34
2018-09-22T06:44:19.342Z,101393.07
2018-09-22T06:47:24.943Z,101399.73
2018-09-22T06:50:30.381Z,101392.23
2018-09-22T06:53:35.933Z,101394.42
2018-09-22T06:56:41.273Z,101391.34
2018-09-22T06:59:46.633Z,101397.11
2018-09-22T07:02:52.049Z,101402.31
2018-09-22T07:05:57.601Z,101395.66
2018-09-22T07:09:03.074Z,101395.57
2018-09-22T07:12:08.787Z,101406.27
2018-09-22T07:15:14.477Z,101403.55
2018-09-22T07:18:20.018Z,101399.91
2018-09-22T07:21:30.618Z,101414.89
2018-09-22T07:24:35.942Z,101406.92
2018-09-22T07:27:41.483Z,101402.05
2018-09-22T07:30:46.991Z,101406.81
2018-09-22T07:33:52.485Z,101402.28
2018-09-22T07:36:57.985Z,101414.83
2018-09-22T07:40:03.831Z,101408.05
2018-09-22T07:43:09.264Z,101400.73
2018-09-22T07:46:14.690Z,101398.96
2018-09-22T07:49:20.116Z,101405.68
2018-09-22T07:52:25.465Z,101414.30
2018-09-22T07:55:30.800Z,101418.78
2018-09-22T07:58:36.394Z,101418.99
2018-09-22T08:01:41.993Z,101422.16
2018-09-22T08:04:47.330Z,101422.38
2018-09-22T08:07:52.789Z,101425.84
2018-09-22T08:10:58.126Z,101423.77
2018-09-22T08:14:04.802Z,101427.67
2018-09-22T08:17:12.461Z,101425.75
2018-09-22T08:20:17.794Z,101431.45
2018-09-22T08:23:23.437Z,101432.09
2018-09-22T08:26:29.102Z,101433.48
2018-09-22T08:29:34.564Z,101433.03
2018-09-22T08:32:39.917Z,101433.52
2018-09-22T08:35:45.426Z,101439.42
2018-09-22T08:38:50.873Z,101444.12
2018-09-22T08:41:56.219Z,101434.69
2018-09-22T08:45:01.663Z,101440.31
2018-09-22T08:48:07.382Z,101446.02
2018-09-22T08:51:12.795Z,101460.59
2018-09-22T08:54:18.339Z,101459.18
2018-09-22T08:57:23.817Z,101465.16
2018-09-22T09:00:29.161Z,101455.41
2018-09-22T09:03:34.734Z,101453.47
2018-09-22T09:06:40.117Z,101443.60
2018-09-22T09:09:45.482Z,101468.80
2018-09-22T09:12:50.842Z,101453.09
2018-09-22T09:15:56.169Z,101453.38
2018-09-22T09:19:01.659Z,101456.20
2018-09-22T09:22:07.009Z,101440.60
2018-09-22T09:25:12.321Z,101444.16
2018-09-22T09:28:17.776Z,101459.27
2018-09-22T09:31:23.154Z,101459.63
2018-09-22T09:34:28.514Z,101458.98
2018-09-22T09:37:33.930Z,101458.26
2018-09-22T09:40:39.269Z,101452.52
2018-09-22T09:43:44.676Z,101437.05
2018-09-22T09:46:50.261Z,101455.34
2018-09-22T09:49:55.631Z,101445.31
2018-09-22T09:53:00.989Z,101448.03
2018-09-22T09:56:06.381Z,101449.53
2018-09-22T09:59:12.005Z,101437.16
2018-09-22T10:02:17.407Z,101429.13
2018-09-22T10:05:22.868Z,101442.77
2018-09-22T10:08:28.361Z,101436.69
2018-09-22T10:11:33.684Z,101423.91
2018-09-22T10:14:39.044Z,101431.78
2018-09-22T10:17:44.771Z,101429.86
2018-09-22T10:20:50.106Z,101422.36
2018-09-22T10:23:55.478Z,101424.17
2018-09-22T10:27:00.893Z,101427.84
2018-09-22T10:30:07.209Z,101423.28
2018-09-22T10:33:14.001Z,101414.28
2018-09-22T10:36:20.074Z,101415.20
2018-09-22T10:39:29.885Z,101418.47
2018-09-22T10:42:37.453Z,101412.13
2018-09-22T10:45:42.873Z,101410.90
2018-09-22T10:48:48.305Z,101418.56
2018-09-22T10:51:53.668Z,101419.14
2018-09-22T10:54:59.256Z,101417.88
2018-09-22T10:58:04.652Z,101421.05
2018-09-22T11:01:10.202Z,101425.81
2018-09-22T11:04:15.578Z,101417.88
2018-09-22T11:07:20.936Z,101424.66
2018-09-22T11:10:26.319Z,101416.10
2018-09-22T11:13:31.689Z,101421.95
2018-09-22T11:16:37.047Z,101407.90
2018-09-22T11:19:42.428Z,101418.48
2018-09-22T11:22:47.778Z,101420.27
2018-09-22T11:25:53.218Z,101404.06
2018-09-22T11:28:58.594Z,101409.55
2018-09-22T11:32:03.961Z,101421.55
2018-09-22T11:35:09.414Z,101416.87
2018-09-22T11:38:14.989Z,101437.72
2018-09-22T11:41:20.539Z,101430.13
2018-09-22T11:44:25.883Z,101419.59
2018-09-22T11:47:31.218Z,101413.14
2018-09-22T11:50:36.585Z,101419.48
2018-09-22T11:53:41.945Z,101427.50
2018-09-22T11:56:47.286Z,101406.78
2018-09-22T11:59:52.633Z,101416.11
2018-09-22T12:02:58.003Z,101429.92
2018-09-22T12:06:03.433Z,101432.55
2018-09-22T12:09:11.885Z,101421.48
2018-09-22T12:12:17.238Z,101435.85
2018-09-22T12:15:22.597Z,101438.88
2018-09-22T12:18:27.943Z,101513.27
2018-09-22T12:21:33.375Z,101496.06
2018-09-22T12:24:38.785Z,101512.43
2018-09-22T12:27:44.338Z,101485.47
2018-09-22T12:30:49.724Z,101480.59
2018-09-22T12:33:55.101Z,101487.02
2018-09-22T12:37:00.451Z,101504.19
2018-09-22T12:40:06.473Z,101540.98
2018-09-22T12:43:11.811Z,101483.64
2018-09-22T12:46:17.196Z,101495.84
2018-09-22T12:49:22.594Z,101496.39
2018-09-22T12:52:38.106Z,101506.66
2018-09-22T12:55:43.949Z,101508.34
2018-09-22T12:58:49.416Z,101507.41
2018-09-22T13:01:54.802Z,101501.20
2018-09-22T13:05:00.189Z,101493.52
2018-09-22T13:08:05.834Z,101494.20
2018-09-22T13:11:11.369Z,101492.38
2018-09-22T13:14:16.728Z,101512.20
2018-09-22T13:17:22.238Z,101523.81
2018-09-22T13:20:27.715Z,101514.38
2018-09-22T13:23:33.115Z,101516.18
2018-09-22T13:26:38.600Z,101495.77
2018-09-22T13:29:44.220Z,101494.20
2018-09-22T13:32:49.602Z,101484.47
2018-09-22T13:35:55.023Z,101493.37
2018-09-22T13:39:00.641Z,101483.07
2018-09-22T13:42:06.553Z,101489.39
2018-09-22T13:45:11.971Z,101489.80
2018-09-22T13:48:17.507Z,101481.74
2018-09-22T13:51:23.089Z,101474.73
2018-09-22T13:54:28.474Z,101483.04
2018-09-22T13:57:33.870Z,101476.97
2018-09-22T14:00:39.263Z,101475.69
2018-09-22T14:03:44.725Z,101471.81
2018-09-22T14:06:50.278Z,101476.22
2018-09-22T14:09:55.696Z,101476.53
2018-09-22T14:13:03.001Z,101475.36
2018-09-22T14:16:21.971Z,101482.27
2018-09-22T14:19:27.727Z,101477.18
2018-09-22T14:26:37.033Z,101469.10
2018-09-22T14:29:42.442Z,101470.52
2018-09-22T14:32:48.065Z,101465.48
2018-09-22T14:35:53.594Z,101455.31
2018-09-22T14:38:58.942Z,101460.55
2018-09-22T14:42:04.308Z,101467.94
2018-09-22T14:45:10.601Z,101454.17
2018-09-22T14:48:16.885Z,101454.11
2018-09-22T14:51:23.109Z,101457.16
2018-09-22T14:54:30.608Z,101457.09
2018-09-22T14:57:36.113Z,101454.34
2018-09-22T15:00:41.478Z,101446.56
2018-09-22T15:03:48.253Z,101439.75
2018-09-22T15:06:53.711Z,101427.84
2018-09-22T15:09:59.068Z,101435.83
2018-09-22T15:13:04.435Z,101450.63
2018-09-22T15:16:09.860Z,101455.39
2018-09-22T15:19:15.275Z,101472.23
2018-09-22T15:22:20.645Z,101468.64
2018-09-22T15:25:26.012Z,101476.86
2018-09-22T15:28:31.645Z,101473.17
2018-09-22T15:31:37.401Z,101462.19
2018-09-22T15:34:43.777Z,101470.87
2018-09-22T15:37:49.166Z,101460.71
2018-09-22T15:40:54.497Z,101459.03
2018-09-22T15:43:59.879Z,101454.33
2018-09-22T15:47:05.295Z,101450.18
2018-09-22T15:50:10.653Z,101449.55
2018-09-22T15:53:16.010Z,101445.42
2018-09-22T15:56:21.389Z,101442.33
2018-09-22T15:59:26.864Z,101447.13
2018-09-22T16:02:32.517Z,101445.05
2018-09-22T16:05:37.865Z,101436.56
2018-09-22T16:08:43.311Z,101434.66
2018-09-22T16:11:49.632Z,101425.33
2018-09-22T16:14:54.973Z,101419.92
2018-09-22T16:18:00.989Z,101421.59
2018-09-22T16:21:06.709Z,101416.96
2018-09-22T16:24:12.069Z,101422.37
2018-09-22T16:27:17.491Z,101407.80
2018-09-22T16:30:23.042Z,101421.43
2018-09-22T16:33:28.409Z,101403.03
2018-09-22T16:36:33.773Z,101403.88
2018-09-22T16:39:39.136Z,101404.59
2018-09-22T16:42:44.525Z,101405.12
2018-09-22T16:45:50.055Z,101414.28
2018-09-22T16:48:55.430Z,101410.59
2018-09-22T16:52:01.099Z,101420.69
2018-09-22T16:55:06.801Z,101407.55
2018-09-22T16:58:12.149Z,101404.16
2018-09-22T17:01:17.634Z,101428.64
2018-09-22T17:04:23.030Z,101421.63
2018-09-22T17:07:28.438Z,101425.73
2018-09-22T17:10:34.106Z,101429.35
2018-09-22T17:13:39.449Z,101424.02
2018-09-22T17:16:44.793Z,101417.41
2018-09-22T17:19:50.142Z,101416.94
2018-09-22T17:22:55.517Z,101417.23
2018-09-22T17:26:01.297Z,101432.50
2018-09-22T17:29:07.345Z,101424.64
2018-09-22T17:32:12.761Z,101423.60
2018-09-22T17:35:18.166Z,101423.06
2018-09-22T17:38:23.589Z,101427.35
2018-09-22T17:41:28.954Z,101416.52
2018-09-22T17:44:34.481Z,101417.22
2018-09-22T17:47:39.868Z,101403.20
2018-09-22T17:50:45.225Z,101402.86
2018-09-22T17:53:50.590Z,101412.08
2018-09-22T17:56:55.952Z,101404.02
2018-09-22T18:00:01.316Z,101414.48
2018-09-22T18:03:07.278Z,101424.61
2018-09-22T18:06:12.639Z,101427.55
2018-09-22T18:09:18.036Z,101433.69
2018-09-22T18:12:23.398Z,101425.14
2018-09-22T18:15:28.778Z,101427.77
2018-09-22T18:18:34.149Z,101429.05
2018-09-22T18:21:39.658Z,101436.69
2018-09-22T18:24:45.085Z,101437.53
2018-09-22T18:27:50.502Z,101428.75
2018-09-22T18:30:55.861Z,101434.83
2018-09-22T18:34:01.378Z,101436.60
2018-09-22T18:37:06.955Z,101429.23
2018-09-22T18:40:12.529Z,101432.00
2018-09-22T18:43:18.006Z,101420.00
2018-09-22T18:46:23.367Z,101423.55
2018-09-22T18:49:28.734Z,101443.69
2018-09-22T18:52:34.171Z,101444.62
2018-09-22T18:55:40.544Z,101444.90
2018-09-22T18:58:45.957Z,101439.21
2018-09-22T19:01:51.465Z,101444.81
2018-09-22T19:04:56.856Z,101444.53
2018-09-22T19:08:02.334Z,101442.14
2018-09-22T19:11:07.709Z,101446.65
2018-09-22T19:14:26.614Z,101446.43
2018-09-22T19:17:36.353Z,101448.57
2018-09-22T19:20:47.759Z,101450.31
2018-09-22T19:23:57.649Z,101451.70
2018-09-22T19:27:06.621Z,101460.91
2018-09-22T19:30:18.751Z,101460.13
2018-09-22T19:33:33.489Z,101458.67
2018-09-22T19:36:47.085Z,101464.56
2018-09-22T19:39:56.633Z,101461.05
2018-09-22T19:43:05.969Z,101461.05
2018-09-22T19:46:16.135Z,101476.31
2018-09-22T19:49:25.270Z,101467.78
2018-09-22T19:52:35.198Z,101465.38
2018-09-22T19:55:40.693Z,101457.31
2018-09-22T19:58:46.121Z,101454.16
2018-09-22T20:01:51.478Z,101450.45
2018-09-22T20:04:56.870Z,101468.80
2018-09-22T20:08:02.303Z,101463.14
2018-09-22T20:11:08.121Z,101468.38
2018-09-22T20:14:13.441Z,101471.77
2018-09-22T20:17:18.913Z,101469.67
2018-09-22T20:20:24.514Z,101471.27
2018-09-22T20:23:29.851Z,101470.61
2018-09-22T20:26:35.393Z,101461.59
2018-09-22T20:29:41.117Z,101463.45
2018-09-22T20:32:46.510Z,101457.83
2018-09-22T20:35:52.002Z,101448.66
2018-09-22T20:38:57.567Z,101456.28
2018-09-22T20:42:02.925Z,101452.94
2018-09-22T20:45:08.499Z,101453.67
2018-09-22T20:48:13.922Z,101455.25
2018-09-22T20:51:19.385Z,101463.16
2018-09-22T20:54:24.741Z,101468.70
2018-09-22T20:57:30.282Z,101467.34
2018-09-22T21:00:36.344Z,101473.02
2018-09-22T21:03:41.698Z,101472.27
2018-09-22T21:06:47.250Z,101461.47
2018-09-22T21:09:52.706Z,101471.10
2018-09-22T21:12:58.092Z,101467.52
2018-09-22T21:16:03.593Z,101472.63
2018-09-22T21:19:09.018Z,101469.23
2018-09-22T21:22:14.706Z,101469.64
2018-09-22T21:25:20.171Z,101475.47
2018-09-22T21:28:25.546Z,101471.97
2018-09-22T21:31:30.939Z,101466.02
2018-09-22T21:34:36.297Z,101482.54
2018-09-22T21:37:41.719Z,101473.93
2018-09-22T21:40:47.110Z,101462.34
2018-09-22T21:43:52.467Z,101466.07
2018-09-22T21:46:57.906Z,101464.26
2018-09-22T21:50:03.245Z,101457.46
2018-09-22T21:53:08.773Z,101454.48
2018-09-22T21:56:14.261Z,101457.59
2018-09-22T21:59:19.994Z,101459.41
2018-09-22T22:02:25.365Z,101463.64
2018-09-22T22:05:30.799Z,101468.80
2018-09-22T22:08:36.274Z,101466.20
2018-09-22T22:11:41.935Z,101462.42
2018-09-22T22:14:47.352Z,101466.45
2018-09-22T22:17:52.749Z,101463.72
2018-09-22T22:20:58.096Z,101464.19
2018-09-22T22:24:03.474Z,101467.96
2018-09-22T22:27:08.977Z,101464.19
2018-09-22T22:30:14.395Z,101458.09
2018-09-22T22:33:19.791Z,101455.37
2018-09-22T22:36:25.206Z,101449.19
2018-09-22T22:39:30.570Z,101452.38
2018-09-22T22:42:35.949Z,101453.81
2018-09-22T22:45:41.594Z,101449.28
2018-09-22T22:48:47.417Z,101454.76
2018-09-22T22:51:52.809Z,101468.06
2018-09-22T22:54:58.277Z,101459.23
2018-09-22T22:58:03.647Z,101461.55
2018-09-22T23:01:09.696Z,101460.71
2018-09-22T23:04:15.057Z,101464.45
2018-09-22T23:07:20.541Z,101467.27
2018-09-22T23:10:25.901Z,101457.31
2018-09-22T23:13:31.273Z,101459.96
2018-09-22T23:16:36.718Z,101465.25
2018-09-22T23:19:42.110Z,101458.91
2018-09-22T23:22:47.497Z,101459.88
2018-09-22T23:25:52.961Z,101455.63
2018-09-22T23:28:58.416Z,101455.42
2018-09-22T23:32:03.782Z,101460.09
2018-09-22T23:35:09.189Z,101458.66
2018-09-22T23:38:14.547Z,101460.87
2018-09-22T23:41:20.094Z,101457.22
2018-09-22T23:44:25.978Z,101452.86
2018-09-22T23:47:31.430Z,101455.38
2018-09-22T23:50:36.813Z,101453.53
2018-09-22T23:53:42.334Z,101454.20
2018-09-22T23:56:47.757Z,101454.50
2018-09-22T23:59:53.100Z,101453.87
